Time;durP1;ratioP1;P1;durP2;ratioP2;P2;SDS_P1;SDS_P2;PMS_P1;PMS_P2;Temp;Humidity;BMP_temperature;BMP_pressure;BME280_temperature;BME280_humidity;BME280_pressure;Samples;Min_cycle;Max_cycle;Signal;HPM_P1;HPM_P2
2021/12/11 00:00:22;;;;;;;13.97;7.27;;;2.50;99.90;;;;;;5002734;28;20049;-79
2021/12/11 00:03:19;;;;;;;15.60;7.07;;;2.50;99.90;;;;;;5021340;28;20026;-79
2021/12/11 00:05:55;;;;;;;13.33;6.80;;;2.40;99.90;;;;;;5035788;28;20042;-79
2021/12/11 00:08:25;;;;;;;14.73;7.03;;;2.40;99.90;;;;;;5018965;28;20044;-79
2021/12/11 00:10:59;;;;;;;14.13;6.77;;;2.30;99.90;;;;;;5018958;28;20026;-79
2021/12/11 00:13:29;;;;;;;15.40;7.70;;;2.30;99.90;;;;;;5018882;28;20041;-79
2021/12/11 00:15:57;;;;;;;13.87;7.20;;;2.30;99.90;;;;;;5018588;28;20164;-79
2021/12/11 00:18:26;;;;;;;14.43;8.17;;;2.40;99.90;;;;;;5018057;28;20475;-79
2021/12/11 00:20:56;;;;;;;15.65;7.43;;;2.30;99.90;;;;;;5018837;28;20049;-80
2021/12/11 00:23:37;;;;;;;15.00;7.53;;;2.30;99.90;;;;;;5019174;28;20116;-78
2021/12/11 00:26:06;;;;;;;15.50;7.83;;;2.30;99.90;;;;;;5022331;28;20025;-79
2021/12/11 00:28:31;;;;;;;15.93;7.85;;;2.30;99.90;;;;;;5020594;28;20092;-80
2021/12/11 00:30:58;;;;;;;16.60;7.60;;;2.20;99.90;;;;;;5019982;28;20030;-79
2021/12/11 00:33:32;;;;;;;14.30;7.60;;;2.20;99.90;;;;;;5037209;28;20030;-79
2021/12/11 00:35:58;;;;;;;19.37;7.67;;;2.20;99.90;;;;;;5021390;28;20057;-79
2021/12/11 00:38:32;;;;;;;15.80;7.87;;;2.10;99.90;;;;;;5021470;28;20041;-77
2021/12/11 00:40:59;;;;;;;16.50;8.80;;;2.10;99.90;;;;;;5022171;28;20061;-79
2021/12/11 00:43:29;;;;;;;18.13;9.53;;;2.10;99.90;;;;;;5019841;28;20553;-80
2021/12/11 00:45:57;;;;;;;17.93;8.60;;;2.00;99.90;;;;;;5016379;28;20030;-78
2021/12/11 00:48:25;;;;;;;20.63;9.00;;;2.10;99.90;;;;;;5030824;28;20494;-77
2021/12/11 00:50:56;;;;;;;19.13;9.05;;;2.10;99.90;;;;;;5014756;28;20109;-80
2021/12/11 00:53:41;;;;;;;21.40;10.27;;;2.10;99.90;;;;;;5016103;28;20108;-79
2021/12/11 00:56:13;;;;;;;15.40;8.80;;;2.00;99.90;;;;;;5015604;28;20026;-78
2021/12/11 00:58:41;;;;;;;17.87;8.43;;;2.00;99.90;;;;;;5030083;28;20030;-77
2021/12/11 01:01:07;;;;;;;16.20;7.80;;;2.00;99.90;;;;;;5015030;28;20057;-77
2021/12/11 01:03:35;;;;;;;15.63;8.83;;;1.90;99.90;;;;;;4996851;28;20060;-77
2021/12/11 01:06:11;;;;;;;15.38;8.82;;;2.00;99.90;;;;;;4996966;28;20033;-77
2021/12/11 01:08:42;;;;;;;18.40;8.40;;;1.90;99.90;;;;;;5013125;28;20038;-77
2021/12/11 01:11:18;;;;;;;15.57;7.73;;;1.90;99.90;;;;;;5015854;28;20065;-79
2021/12/11 01:14:11;;;;;;;17.90;7.77;;;1.90;99.90;;;;;;5014637;28;20037;-78
2021/12/11 01:16:40;;;;;;;14.23;8.07;;;1.90;99.90;;;;;;5013223;28;20030;-78
2021/12/11 01:19:07;;;;;;;13.55;7.55;;;1.90;99.90;;;;;;5014929;28;20038;-79
2021/12/11 01:24:11;;;;;;;12.60;7.80;;;1.80;99.90;;;;;;5014974;28;20045;-78
2021/12/11 01:26:47;;;;;;;18.90;8.50;;;1.80;99.90;;;;;;5014915;28;20034;-77
2021/12/11 01:29:14;;;;;;;17.87;8.50;;;1.80;99.90;;;;;;5016624;28;20105;-82
2021/12/11 01:31:41;;;;;;;15.73;8.37;;;1.80;99.90;;;;;;5017788;28;20021;-81
2021/12/11 01:34:07;;;;;;;15.67;8.50;;;1.70;99.90;;;;;;4996112;28;20034;-80
2021/12/11 01:36:34;;;;;;;16.83;8.57;;;1.70;99.90;;;;;;5013668;28;20037;-80
2021/12/11 01:39:05;;;;;;;20.47;8.57;;;1.70;99.90;;;;;;4996408;28;20022;-81
2021/12/11 01:41:30;;;;;;;15.90;8.27;;;1.70;99.90;;;;;;5012381;28;20248;-81
2021/12/11 01:44:02;;;;;;;16.87;8.70;;;1.80;99.90;;;;;;5012721;28;20045;-81
2021/12/11 01:46:28;;;;;;;15.43;8.67;;;1.70;99.90;;;;;;5013100;28;20523;-82
2021/12/11 01:49:01;;;;;;;18.43;8.83;;;1.70;99.90;;;;;;5012629;28;20124;-81
2021/12/11 01:51:52;;;;;;;15.93;9.13;;;1.80;99.90;;;;;;5016890;28;20084;-81
2021/12/11 01:54:21;;;;;;;16.57;9.67;;;1.80;99.90;;;;;;5018109;28;20502;-82
2021/12/11 01:56:58;;;;;;;19.10;9.13;;;1.80;99.90;;;;;;5016926;28;20487;-81
2021/12/11 01:59:30;;;;;;;17.73;8.90;;;1.80;99.90;;;;;;5017212;28;20030;-81
2021/12/11 02:02:03;;;;;;;20.30;9.63;;;1.70;99.90;;;;;;5032652;28;20030;-80
2021/12/11 02:04:38;;;;;;;15.70;8.77;;;1.70;99.90;;;;;;5016374;28;20033;-80
2021/12/11 02:07:11;;;;;;;19.17;8.97;;;1.70;99.90;;;;;;5016953;28;20029;-82
2021/12/11 02:09:39;;;;;;;15.90;9.07;;;1.70;99.90;;;;;;5017993;28;20030;-83
2021/12/11 02:12:11;;;;;;;15.70;8.73;;;1.60;99.90;;;;;;5016439;28;20112;-82
2021/12/11 02:14:42;;;;;;;15.50;8.30;;;1.60;99.90;;;;;;5000504;28;20053;-83
2021/12/11 02:17:40;;;;;;;15.67;8.77;;;1.60;99.90;;;;;;5016363;28;20491;-82
2021/12/11 02:20:10;;;;;;;15.73;8.27;;;1.70;99.90;;;;;;5012129;28;20038;-80
2021/12/11 02:22:43;;;;;;;15.50;7.50;;;1.80;99.90;;;;;;5017241;28;20037;-81
2021/12/11 02:25:14;;;;;;;21.10;8.80;;;1.80;99.90;;;;;;4999716;28;20057;-81
2021/12/11 02:27:55;;;;;;;15.43;8.30;;;1.70;99.90;;;;;;5016684;28;20036;-83
2021/12/11 02:30:33;;;;;;;15.83;8.07;;;1.60;99.90;;;;;;5000364;28;20034;-80
2021/12/11 02:33:13;;;;;;;17.77;8.50;;;1.70;99.90;;;;;;5000639;28;20072;-81
2021/12/11 02:35:55;;;;;;;16.20;7.80;;;1.60;99.90;;;;;;5033747;28;20406;-80
2021/12/11 02:39:09;;;;;;;14.70;8.40;;;1.60;99.90;;;;;;5033277;28;20038;-80
2021/12/11 02:41:57;;;;;;;15.87;8.43;;;1.60;99.90;;;;;;5012267;28;20033;-80
2021/12/11 02:44:25;;;;;;;14.63;7.90;;;1.60;99.90;;;;;;5016967;28;20038;-82
2021/12/11 02:46:59;;;;;;;17.98;9.13;;;1.50;99.90;;;;;;5000521;28;20176;-83
2021/12/11 02:49:30;;;;;;;14.40;8.33;;;1.50;99.90;;;;;;5033810;28;20064;-81
2021/12/11 02:52:11;;;;;;;16.13;8.83;;;1.60;99.90;;;;;;5033942;28;20089;-83
2021/12/11 02:54:45;;;;;;;16.97;8.23;;;1.60;99.90;;;;;;5018356;28;20022;-81
2021/12/11 02:57:26;;;;;;;14.90;8.50;;;1.60;99.90;;;;;;5016920;28;20029;-82
2021/12/11 02:59:53;;;;;;;16.93;8.67;;;1.70;99.90;;;;;;5017289;28;20033;-83
2021/12/11 03:02:24;;;;;;;17.07;8.63;;;1.70;99.90;;;;;;5034151;28;20565;-80
2021/12/11 03:05:04;;;;;;;16.97;8.77;;;1.70;99.90;;;;;;5034054;28;20041;-81
2021/12/11 03:07:36;;;;;;;17.10;9.10;;;1.60;99.90;;;;;;5000914;28;20044;-82
2021/12/11 03:10:10;;;;;;;15.33;8.63;;;1.60;99.90;;;;;;5017706;28;20045;-81
2021/12/11 03:12:37;;;;;;;15.97;8.33;;;1.60;99.90;;;;;;5017785;28;20057;-83
2021/12/11 03:15:07;;;;;;;17.17;9.53;;;1.50;99.90;;;;;;5017807;28;20042;-81
2021/12/11 03:17:33;;;;;;;16.60;8.10;;;1.50;99.90;;;;;;5016969;28;20034;-79
2021/12/11 03:19:59;;;;;;;15.90;7.80;;;1.50;99.90;;;;;;5017250;28;20025;-83
2021/12/11 03:22:30;;;;;;;16.10;8.57;;;1.50;99.90;;;;;;5018489;28;20094;-82
2021/12/11 03:24:57;;;;;;;18.50;8.10;;;1.50;99.90;;;;;;5018498;28;20026;-82
2021/12/11 03:27:23;;;;;;;14.67;8.30;;;1.50;99.90;;;;;;5017681;28;20061;-80
2021/12/11 03:29:49;;;;;;;14.80;8.33;;;1.50;99.90;;;;;;5018778;28;20034;-82
2021/12/11 03:32:16;;;;;;;20.13;9.53;;;1.60;99.90;;;;;;5019040;28;20106;-81
2021/12/11 03:34:44;;;;;;;17.43;8.30;;;1.60;99.90;;;;;;5017992;28;20029;-82
2021/12/11 03:37:11;;;;;;;13.53;7.70;;;1.60;99.90;;;;;;5019541;28;20037;-82
2021/12/11 03:39:41;;;;;;;17.70;8.50;;;1.70;99.90;;;;;;5019828;28;20113;-82
2021/12/11 03:42:18;;;;;;;19.57;9.23;;;1.70;99.90;;;;;;5019513;28;20033;-83
2021/12/11 03:44:44;;;;;;;19.30;9.07;;;1.60;99.90;;;;;;5020175;28;20034;-81
2021/12/11 03:47:15;;;;;;;13.80;8.40;;;1.60;99.90;;;;;;5019024;28;20034;-80
2021/12/11 03:49:41;;;;;;;15.83;8.67;;;1.60;99.90;;;;;;5020585;28;20034;-83
2021/12/11 03:52:08;;;;;;;16.80;8.53;;;1.60;99.90;;;;;;5022129;28;20040;-79
2021/12/11 03:54:38;;;;;;;15.20;8.20;;;1.50;99.90;;;;;;5015423;28;20057;-81
2021/12/11 03:57:06;;;;;;;15.27;8.35;;;1.60;99.90;;;;;;5014047;28;20036;-81
2021/12/11 03:59:33;;;;;;;22.23;9.83;;;1.60;99.90;;;;;;5015044;28;20029;-81
2021/12/11 04:02:04;;;;;;;19.37;9.53;;;1.60;99.90;;;;;;5013388;28;20084;-80
2021/12/11 04:04:43;;;;;;;24.47;10.27;;;1.60;99.90;;;;;;5014576;28;20046;-80
2021/12/11 04:07:14;;;;;;;24.33;10.57;;;1.70;99.90;;;;;;5029687;28;20034;-81
2021/12/11 04:09:40;;;;;;;26.30;11.47;;;1.70;99.90;;;;;;5015113;28;20292;-82
2021/12/11 04:12:08;;;;;;;25.97;11.40;;;1.70;99.90;;;;;;5014170;28;20487;-80
2021/12/11 04:14:39;;;;;;;23.77;11.57;;;1.70;99.90;;;;;;5029586;28;20073;-79
2021/12/11 04:17:07;;;;;;;25.60;11.27;;;1.70;99.90;;;;;;5013424;28;20033;-81
2021/12/11 04:19:33;;;;;;;22.87;11.20;;;1.70;99.90;;;;;;5014692;28;20112;-82
2021/12/11 04:21:59;;;;;;;24.73;11.73;;;1.80;99.90;;;;;;5012993;28;20073;-81
2021/12/11 04:24:29;;;;;;;24.20;12.60;;;1.80;99.90;;;;;;5012888;28;20149;-80
2021/12/11 04:26:57;;;;;;;22.33;11.67;;;1.80;99.90;;;;;;5014328;28;20026;-81
2021/12/11 04:29:24;;;;;;;23.80;12.47;;;1.80;99.90;;;;;;5014683;28;20478;-80
2021/12/11 04:31:51;;;;;;;21.93;12.50;;;1.80;99.90;;;;;;5029734;28;20022;-80
2021/12/11 04:34:20;;;;;;;25.37;12.43;;;1.80;99.90;;;;;;4996282;28;20081;-80
2021/12/11 04:37:09;;;;;;;25.00;12.63;;;1.90;99.90;;;;;;5012858;28;20069;-79
2021/12/11 04:39:37;;;;;;;26.10;12.53;;;1.90;99.90;;;;;;5013793;28;20109;-82
2021/12/11 04:42:14;;;;;;;30.40;14.03;;;2.00;99.90;;;;;;5013949;28;20032;-80
2021/12/11 04:44:44;;;;;;;30.60;13.67;;;2.00;99.90;;;;;;5012626;28;20033;-82
2021/12/11 04:47:15;;;;;;;;;;;2.00;99.90;;;;;;5013055;28;20065;-81
2021/12/11 04:49:49;;;;;;;26.67;12.27;;;2.10;99.90;;;;;;5029010;28;19916;-81
2021/12/11 04:52:34;;;;;;;32.87;14.83;;;2.10;99.90;;;;;;5029730;28;20491;-81
2021/12/11 04:58:08;;;;;;;33.27;14.33;;;2.30;99.90;;;;;;4983703;28;20114;-81
2021/12/11 05:03:46;;;;;;;37.57;15.47;;;2.30;99.90;;;;;;5014061;28;20546;-81
2021/12/11 05:11:41;;;;;;;42.87;17.70;;;2.40;99.90;;;;;;5015279;28;20131;-82
2021/12/11 05:14:12;;;;;;;47.93;19.37;;;2.50;99.90;;;;;;5012840;28;20033;-81
2021/12/11 05:16:38;;;;;;;48.63;19.17;;;2.50;99.90;;;;;;5012780;28;20112;-81
2021/12/11 05:19:04;;;;;;;54.30;20.20;;;2.50;99.90;;;;;;5028806;28;20044;-82
2021/12/11 05:21:30;;;;;;;53.23;19.70;;;2.60;99.90;;;;;;5014067;28;20060;-83
2021/12/11 05:23:56;;;;;;;49.20;19.03;;;2.60;99.90;;;;;;5038310;28;20030;-83
2021/12/11 05:26:23;;;;;;;54.27;19.87;;;2.60;99.90;;;;;;5000183;28;20442;-80
2021/12/11 05:28:49;;;;;;;54.03;20.43;;;2.60;99.90;;;;;;5028148;28;20036;-81
2021/12/11 05:31:15;;;;;;;45.93;20.10;;;2.70;99.90;;;;;;5035815;28;20059;-80
2021/12/11 05:33:43;;;;;;;45.17;19.93;;;2.70;99.90;;;;;;5052718;28;20125;-84
2021/12/11 05:36:11;;;;;;;45.03;20.53;;;2.70;99.90;;;;;;5019574;28;20048;-82
2021/12/11 05:38:39;;;;;;;50.53;21.10;;;2.70;99.90;;;;;;5033896;28;20037;-81
2021/12/11 05:41:09;;;;;;;57.07;21.83;;;2.70;99.90;;;;;;5035511;28;20033;-81
2021/12/11 05:43:35;;;;;;;50.77;22.27;;;2.70;99.90;;;;;;5041649;28;20029;-81
2021/12/11 05:46:02;;;;;;;50.83;20.83;;;2.70;99.90;;;;;;5046112;28;20029;-82
2021/12/11 05:48:28;;;;;;;49.33;21.60;;;2.80;99.90;;;;;;5014888;28;20144;-79
2021/12/11 05:50:58;;;;;;;52.77;22.10;;;2.70;99.90;;;;;;5028390;28;20052;-80
2021/12/11 05:53:24;;;;;;;59.42;24.30;;;2.80;99.90;;;;;;5024324;28;20107;-82
2021/12/11 05:55:52;;;;;;;52.07;21.53;;;2.70;99.90;;;;;;5015899;28;20478;-81
2021/12/11 06:01:05;;;;;;;56.97;23.17;;;2.70;99.90;;;;;;5016320;28;20034;-81
2021/12/11 06:03:31;;;;;;;62.47;23.50;;;2.80;99.90;;;;;;5014736;28;20022;-82
2021/12/11 06:06:04;;;;;;;58.33;22.93;;;2.80;99.90;;;;;;5014578;28;20478;-80
2021/12/11 06:08:31;;;;;;;56.90;22.53;;;2.80;99.90;;;;;;4991147;28;28000;-82
2021/12/11 06:10:57;;;;;;;57.27;22.97;;;2.70;99.90;;;;;;5015021;28;20156;-80
2021/12/11 06:13:25;;;;;;;64.93;23.60;;;2.70;99.90;;;;;;5030616;28;20076;-82
2021/12/11 06:15:52;;;;;;;53.80;22.83;;;2.60;99.90;;;;;;5016116;28;20030;-82
2021/12/11 06:18:19;;;;;;;56.60;21.90;;;2.60;99.90;;;;;;5014879;28;20030;-82
2021/12/11 06:20:47;;;;;;;56.53;21.97;;;2.60;99.90;;;;;;5015987;28;20026;-82
2021/12/11 06:23:15;;;;;;;55.03;22.00;;;2.50;99.90;;;;;;5031563;28;20116;-83
2021/12/11 06:25:41;;;;;;;62.57;25.00;;;2.60;99.90;;;;;;5032063;28;20056;-82
2021/12/11 06:28:08;;;;;;;63.83;25.60;;;2.60;99.90;;;;;;5030761;28;20026;-83
2021/12/11 06:30:34;;;;;;;57.83;23.40;;;2.70;99.90;;;;;;4997845;28;20467;-80
2021/12/11 06:33:00;;;;;;;57.57;22.90;;;2.80;99.90;;;;;;5015417;28;20065;-82
2021/12/11 06:35:32;;;;;;;60.07;23.37;;;2.70;99.90;;;;;;5017042;28;20362;-81
2021/12/11 06:38:01;;;;;;;59.83;24.70;;;2.80;99.90;;;;;;5015210;28;20030;-79
2021/12/11 06:40:28;;;;;;;60.40;23.42;;;2.80;99.90;;;;;;5029235;28;20125;-80
2021/12/11 06:42:55;;;;;;;59.33;25.00;;;2.80;99.90;;;;;;5014103;28;20033;-79
2021/12/11 06:45:24;;;;;;;58.63;23.53;;;2.80;99.90;;;;;;5014369;28;20033;-79
2021/12/11 06:47:51;;;;;;;64.97;24.95;;;2.80;99.90;;;;;;5028299;28;20053;-80
2021/12/11 06:50:18;;;;;;;59.47;24.20;;;2.80;99.90;;;;;;5017463;28;20084;-82
2021/12/11 06:52:45;;;;;;;64.40;25.40;;;2.80;99.90;;;;;;5017566;28;20068;-83
2021/12/11 06:55:13;;;;;;;71.03;25.70;;;2.80;99.90;;;;;;5038939;28;20072;-81
2021/12/11 06:57:39;;;;;;;65.87;25.93;;;2.90;99.90;;;;;;5023522;28;20034;-80
2021/12/11 07:00:06;;;;;;;64.70;25.17;;;2.90;99.90;;;;;;5024002;28;20474;-84
2021/12/11 07:02:32;;;;;;;66.43;25.97;;;2.90;99.90;;;;;;5012820;28;20034;-82
2021/12/11 07:04:58;;;;;;;63.07;25.03;;;2.90;99.90;;;;;;5014092;28;20400;-82
2021/12/11 07:07:27;;;;;;;62.50;24.33;;;2.90;99.90;;;;;;4996801;28;20136;-82
2021/12/11 07:09:54;;;;;;;63.80;25.48;;;2.90;99.90;;;;;;5032717;28;20136;-80
2021/12/11 07:12:21;;;;;;;64.60;25.83;;;2.80;99.90;;;;;;5028826;28;22981;-81
2021/12/11 07:14:47;;;;;;;59.63;26.60;;;2.80;99.90;;;;;;5000310;28;20091;-82
2021/12/11 07:17:13;;;;;;;67.63;27.30;;;2.80;99.90;;;;;;5015515;28;20041;-82
2021/12/11 07:19:39;;;;;;;58.67;25.40;;;2.80;99.90;;;;;;5032107;28;20509;-80
2021/12/11 07:22:05;;;;;;;65.67;26.57;;;2.90;99.90;;;;;;4999204;28;20113;-81
2021/12/11 07:24:36;;;;;;;65.57;26.13;;;2.80;99.90;;;;;;5031714;28;20435;-81
2021/12/11 07:27:07;;;;;;;60.13;26.57;;;2.90;99.90;;;;;;5015853;28;20475;-80
2021/12/11 07:29:34;;;;;;;66.47;26.63;;;2.90;99.90;;;;;;5030171;28;20026;-80
2021/12/11 07:32:00;;;;;;;66.50;25.87;;;2.90;99.90;;;;;;5030848;28;20030;-80
2021/12/11 07:34:26;;;;;;;60.90;25.03;;;2.90;99.90;;;;;;5042439;28;20056;-81
2021/12/11 07:36:55;;;;;;;62.87;24.43;;;2.90;99.90;;;;;;5026001;28;20053;-87
2021/12/11 07:39:24;;;;;;;60.43;25.30;;;2.90;99.90;;;;;;5008224;28;20169;-82
2021/12/11 07:41:50;;;;;;;63.23;26.30;;;2.90;99.90;;;;;;5019130;28;20125;-83
2021/12/11 07:44:16;;;;;;;56.90;24.47;;;2.90;99.90;;;;;;5034930;28;20029;-84
2021/12/11 07:46:43;;;;;;;66.27;25.57;;;2.90;99.90;;;;;;5018386;28;20056;-85
2021/12/11 07:49:08;;;;;;;65.87;25.90;;;3.00;99.90;;;;;;5033194;28;20249;-83
2021/12/11 07:51:36;;;;;;;57.47;25.33;;;2.90;99.90;;;;;;5018050;28;20594;-82
2021/12/11 07:54:04;;;;;;;61.00;25.73;;;2.90;99.90;;;;;;5034655;28;20041;-84
2021/12/11 07:56:30;;;;;;;63.93;26.03;;;3.00;99.90;;;;;;5038887;28;20133;-86
2021/12/11 07:58:59;;;;;;;57.37;24.90;;;3.00;99.90;;;;;;5035100;28;20478;-82
2021/12/11 08:01:26;;;;;;;59.00;23.33;;;3.00;99.90;;;;;;5020068;28;20486;-84
2021/12/11 08:03:57;;;;;;;62.10;25.33;;;3.10;99.90;;;;;;5034550;28;20064;-85
2021/12/11 08:06:23;;;;;;;64.30;27.20;;;3.10;99.90;;;;;;5034912;28;20057;-84
2021/12/11 08:08:49;;;;;;;65.57;26.73;;;3.10;99.90;;;;;;5033290;28;20478;-80
2021/12/11 08:11:17;;;;;;;63.27;25.93;;;3.10;99.90;;;;;;5032262;28;20036;-84
2021/12/11 08:13:46;;;;;;;62.70;26.67;;;3.20;99.90;;;;;;5030580;28;20125;-80
2021/12/11 08:16:13;;;;;;;62.50;25.77;;;3.20;99.90;;;;;;5013822;28;20502;-80
2021/12/11 08:18:39;;;;;;;62.10;25.47;;;3.20;99.90;;;;;;5029879;28;20032;-79
2021/12/11 08:21:06;;;;;;;63.20;25.23;;;3.30;99.90;;;;;;5029167;28;20026;-80
2021/12/11 08:23:32;;;;;;;63.97;28.17;;;3.30;99.90;;;;;;5014059;28;20128;-80
2021/12/11 08:25:59;;;;;;;69.53;30.47;;;3.30;99.90;;;;;;5029144;28;20026;-81
2021/12/11 08:28:28;;;;;;;98.47;40.00;;;3.40;99.90;;;;;;5029234;28;20285;-79
2021/12/11 08:30:54;;;;;;;;;;;3.30;99.90;;;;;;5015002;28;20033;-80
2021/12/11 08:33:22;;;;;;;95.37;38.70;;;3.40;99.90;;;;;;5014633;28;19979;-80
2021/12/11 08:35:48;;;;;;;104.97;43.50;;;3.40;99.90;;;;;;5014550;28;20026;-80
2021/12/11 08:38:17;;;;;;;124.23;54.53;;;3.40;99.90;;;;;;5013941;28;20390;-81
2021/12/11 08:40:47;;;;;;;144.03;59.63;;;3.50;99.90;;;;;;5014287;28;20049;-80
2021/12/11 08:43:15;;;;;;;137.70;59.70;;;3.40;99.90;;;;;;5014111;28;20037;-81
2021/12/11 08:45:48;;;;;;;155.43;63.80;;;3.50;99.90;;;;;;5014423;28;20034;-80
2021/12/11 08:48:21;;;;;;;123.93;50.90;;;3.50;99.90;;;;;;5029216;28;20036;-80
2021/12/11 08:50:53;;;;;;;97.67;42.73;;;3.50;99.90;;;;;;5012092;28;20033;-79
2021/12/11 08:53:18;;;;;;;91.83;38.13;;;3.50;99.90;;;;;;5013990;28;20037;-80
2021/12/11 08:55:48;;;;;;;83.87;35.13;;;3.50;99.90;;;;;;5013807;28;20060;-80
2021/12/11 08:58:15;;;;;;;;;;;3.50;99.90;;;;;;5013076;28;20033;-79
2021/12/11 09:00:44;;;;;;;82.17;30.40;;;3.50;99.90;;;;;;5013586;28;20378;-80
2021/12/11 09:03:28;;;;;;;;;;;3.50;99.90;;;;;;5028825;28;20026;-80
2021/12/11 09:06:02;;;;;;;71.57;27.70;;;3.50;99.90;;;;;;5012527;28;20479;-79
2021/12/11 09:08:49;;;;;;;73.17;27.67;;;3.60;99.90;;;;;;5011877;28;20157;-80
2021/12/11 09:11:26;;;;;;;69.90;28.00;;;3.60;99.90;;;;;;5013366;28;20049;-80
2021/12/11 09:14:13;;;;;;;68.47;28.93;;;3.60;99.90;;;;;;5049265;23;20068;-86
2021/12/11 09:16:51;;;;;;;68.43;28.07;;;3.70;99.90;;;;;;5050654;28;20481;-87
2021/12/11 09:19:28;;;;;;;63.77;28.03;;;3.70;99.90;;;;;;5067443;28;20037;-86
2021/12/11 09:22:16;;;;;;;63.90;27.13;;;3.60;99.90;;;;;;5067778;28;20528;-85
2021/12/11 09:24:48;;;;;;;;;;;3.70;99.90;;;;;;5067780;28;20466;-86
2021/12/11 09:27:23;;;;;;;64.07;27.03;;;3.70;99.90;;;;;;5034593;28;19913;-86
2021/12/11 09:29:56;;;;;;;67.77;29.30;;;3.70;99.90;;;;;;5067530;28;20036;-86
2021/12/11 09:32:35;;;;;;;65.63;28.30;;;3.70;99.90;;;;;;5067780;28;20037;-85
2021/12/11 09:35:16;;;;;;;;;;;3.70;99.90;;;;;;5051979;28;20477;-86
2021/12/11 09:37:48;;;;;;;75.63;27.70;;;3.70;99.90;;;;;;5052011;28;20011;-86
2021/12/11 09:40:36;;;;;;;69.83;28.67;;;3.70;99.90;;;;;;5052407;28;20118;-85
2021/12/11 09:43:02;;;;;;;80.83;31.10;;;3.70;99.90;;;;;;5035007;28;20029;-86
2021/12/11 09:45:40;;;;;;;78.97;29.97;;;3.70;99.90;;;;;;5034693;28;20037;-86
2021/12/11 09:48:10;;;;;;;88.33;35.57;;;3.70;99.90;;;;;;5067424;28;20029;-86
2021/12/11 09:50:45;;;;;;;;;;;3.70;99.90;;;;;;5068174;28;20394;-86
2021/12/11 09:53:17;;;;;;;92.40;37.20;;;3.70;99.90;;;;;;5050903;28;19908;-86
2021/12/11 09:55:52;;;;;;;89.97;35.83;;;3.80;99.90;;;;;;5068191;28;20029;-86
2021/12/11 09:58:22;;;;;;;86.90;35.83;;;3.80;99.90;;;;;;5051584;28;20044;-86
2021/12/11 10:01:01;;;;;;;83.30;34.50;;;3.80;99.90;;;;;;5034344;28;20036;-86
2021/12/11 10:03:32;;;;;;;86.37;34.07;;;3.80;99.90;;;;;;5050582;28;20032;-85
2021/12/11 10:06:14;;;;;;;77.43;31.07;;;3.90;99.90;;;;;;5050786;28;20048;-86
2021/12/11 10:08:45;;;;;;;76.70;29.47;;;3.90;99.90;;;;;;5051159;28;20032;-84
2021/12/11 10:11:13;;;;;;;77.43;29.43;;;3.90;99.90;;;;;;5070433;28;20033;-86
2021/12/11 10:13:57;;;;;;;71.63;27.85;;;3.90;99.90;;;;;;5055603;28;20481;-86
2021/12/11 10:16:28;;;;;;;71.17;28.37;;;4.00;99.90;;;;;;5055171;28;20028;-86
2021/12/11 10:18:55;;;;;;;75.10;28.57;;;4.00;99.90;;;;;;5071278;28;20033;-85
2021/12/11 10:21:29;;;;;;;73.10;29.83;;;4.00;99.90;;;;;;5054442;28;20068;-85
2021/12/11 10:23:58;;;;;;;73.47;29.03;;;4.00;99.90;;;;;;5053896;28;20057;-85
2021/12/11 10:26:28;;;;;;;77.40;29.03;;;4.00;99.90;;;;;;5070730;28;20033;-86
2021/12/11 10:28:57;;;;;;;72.90;28.00;;;4.00;99.90;;;;;;5053341;28;20280;-86
2021/12/11 10:31:37;;;;;;;75.88;29.20;;;4.00;99.90;;;;;;5070542;28;20033;-86
2021/12/11 10:34:09;;;;;;;68.78;27.00;;;4.00;99.90;;;;;;5053852;28;20128;-86
2021/12/11 10:36:40;;;;;;;62.97;25.17;;;4.10;99.90;;;;;;5053660;28;20037;-86
2021/12/11 10:39:10;;;;;;;69.90;27.53;;;4.10;99.90;;;;;;5053291;28;20033;-85
2021/12/11 10:41:38;;;;;;;72.87;28.33;;;4.10;99.90;;;;;;5053642;28;20032;-86
2021/12/11 10:44:12;;;;;;;78.77;32.23;;;4.10;99.90;;;;;;5053486;28;20087;-86
2021/12/11 10:46:43;;;;;;;84.10;36.77;;;4.10;99.90;;;;;;5037086;28;20061;-86
2021/12/11 10:49:11;;;;;;;88.77;40.60;;;4.10;99.90;;;;;;5069733;28;20375;-85
2021/12/11 10:51:43;;;;;;;82.78;36.55;;;4.10;99.90;;;;;;5036254;28;20064;-86
2021/12/11 10:54:11;;;;;;;76.63;35.53;;;4.10;99.90;;;;;;5070031;28;20029;-86
2021/12/11 10:56:37;;;;;;;68.53;29.40;;;4.10;99.90;;;;;;5053355;28;20029;-86
2021/12/11 10:59:08;;;;;;;65.30;27.67;;;4.10;99.90;;;;;;5036190;28;20075;-86
2021/12/11 11:01:43;;;;;;;64.13;26.43;;;4.10;99.90;;;;;;5069986;28;20424;-86
2021/12/11 11:04:25;;;;;;;63.97;26.97;;;4.20;99.90;;;;;;5053383;28;20040;-86
2021/12/11 11:06:52;;;;;;;65.83;26.23;;;4.10;99.90;;;;;;5070136;28;20033;-86
2021/12/11 11:09:20;;;;;;;66.07;25.40;;;4.10;99.90;;;;;;5052735;28;20076;-86
2021/12/11 11:11:49;;;;;;;68.87;27.10;;;4.20;99.90;;;;;;5070023;28;20037;-86
2021/12/11 11:14:17;;;;;;;64.65;25.48;;;4.10;99.90;;;;;;5074152;28;20041;-86
2021/12/11 11:16:46;;;;;;;62.10;26.07;;;4.20;99.90;;;;;;5057204;28;20523;-86
2021/12/11 11:19:12;;;;;;;62.53;25.67;;;4.20;99.90;;;;;;5057378;28;20261;-86
2021/12/11 11:21:43;;;;;;;64.80;25.20;;;4.20;99.90;;;;;;5074412;28;20031;-86
2021/12/11 11:24:12;;;;;;;68.13;25.63;;;4.20;99.90;;;;;;5039105;28;20025;-86
2021/12/11 11:26:44;;;;;;;67.45;26.02;;;4.20;99.90;;;;;;5054458;28;20047;-86
2021/12/11 11:29:16;;;;;;;64.47;25.30;;;4.20;99.90;;;;;;5052387;28;20041;-86
2021/12/11 11:31:48;;;;;;;62.40;26.47;;;4.30;99.90;;;;;;5052960;28;20033;-85
2021/12/11 11:34:18;;;;;;;59.87;25.07;;;4.30;99.90;;;;;;5052764;28;20431;-86
2021/12/11 11:36:45;;;;;;;64.93;25.23;;;4.30;99.90;;;;;;5052771;28;20174;-86
2021/12/11 11:39:13;;;;;;;70.23;27.23;;;4.30;99.90;;;;;;5051977;28;20075;-86
2021/12/11 11:41:44;;;;;;;79.27;33.87;;;4.30;99.90;;;;;;5052350;28;20039;-86
2021/12/11 11:44:11;;;;;;;107.03;44.73;;;4.40;99.90;;;;;;5052334;28;20473;-86
2021/12/11 11:46:39;;;;;;;100.17;42.57;;;4.40;99.90;;;;;;5052286;28;20021;-86
2021/12/11 11:49:07;;;;;;;95.00;38.43;;;4.40;99.90;;;;;;5052215;28;20040;-86
2021/12/11 11:51:37;;;;;;;89.27;37.43;;;4.40;99.90;;;;;;5052791;28;20037;-86
2021/12/11 11:54:04;;;;;;;80.23;33.60;;;4.40;99.90;;;;;;5052178;28;20037;-86
2021/12/11 11:56:35;;;;;;;78.73;32.37;;;4.40;99.90;;;;;;5053198;28;20112;-86
2021/12/11 11:59:03;;;;;;;72.63;30.93;;;4.50;99.90;;;;;;5051352;28;20442;-86
2021/12/11 12:01:38;;;;;;;73.83;32.50;;;4.40;99.90;;;;;;5051879;28;20135;-86
2021/12/11 12:04:05;;;;;;;70.60;31.93;;;4.50;99.90;;;;;;5051733;28;20029;-86
2021/12/11 12:06:34;;;;;;;72.30;30.73;;;4.50;99.90;;;;;;5068601;28;20060;-86
2021/12/11 12:09:05;;;;;;;68.70;29.27;;;4.50;99.90;;;;;;5067944;28;20041;-86
2021/12/11 12:11:31;;;;;;;64.53;27.20;;;4.50;99.90;;;;;;5035094;28;20041;-86
2021/12/11 12:13:58;;;;;;;73.43;28.57;;;4.50;99.90;;;;;;5051604;28;20025;-85
2021/12/11 12:16:24;;;;;;;72.30;29.03;;;4.50;99.90;;;;;;5051931;28;20040;-85
2021/12/11 12:18:50;;;;;;;71.17;27.00;;;4.60;99.90;;;;;;5035025;28;20505;-85
2021/12/11 12:21:18;;;;;;;69.17;29.70;;;4.60;99.90;;;;;;5035366;28;20055;-86
2021/12/11 12:23:45;;;;;;;61.60;26.37;;;4.60;99.90;;;;;;5052061;28;20021;-86
2021/12/11 12:26:22;;;;;;;63.07;25.90;;;4.60;99.90;;;;;;5068845;28;20735;-86
2021/12/11 12:28:48;;;;;;;64.17;26.07;;;4.60;99.90;;;;;;5051600;28;20033;-86
2021/12/11 12:31:25;;;;;;;71.70;27.70;;;4.60;99.90;;;;;;5051975;28;20025;-86
2021/12/11 12:33:51;;;;;;;72.37;27.13;;;4.60;99.90;;;;;;5050868;28;20048;-86
2021/12/11 12:36:18;;;;;;;64.53;26.00;;;4.60;99.90;;;;;;5051679;28;20037;-87
2021/12/11 12:38:47;;;;;;;73.17;28.77;;;4.60;99.90;;;;;;5051369;28;20040;-86
2021/12/11 12:41:18;;;;;;;69.47;28.03;;;4.60;99.90;;;;;;5053547;28;20118;-86
2021/12/11 12:46:40;;;;;;;71.37;27.57;;;4.70;99.90;;;;;;5052819;28;20056;-85
2021/12/11 12:49:06;;;;;;;73.87;29.57;;;4.80;99.90;;;;;;5042842;28;20052;-86
2021/12/11 12:51:33;;;;;;;83.27;29.70;;;4.80;99.90;;;;;;5067758;28;20036;-86
2021/12/11 12:54:03;;;;;;;75.33;27.93;;;4.90;99.90;;;;;;5067908;28;20033;-86
2021/12/11 12:56:54;;;;;;;78.73;29.37;;;5.00;99.90;;;;;;5067935;28;20029;-86
2021/12/11 12:59:27;;;;;;;76.17;27.13;;;5.00;99.90;;;;;;5042420;28;20120;-86
2021/12/11 13:02:01;;;;;;;71.67;27.83;;;5.00;99.90;;;;;;5051182;28;20033;-86
2021/12/11 13:04:32;;;;;;;83.43;29.27;;;5.00;99.90;;;;;;5051063;28;20037;-86
2021/12/11 13:07:02;;;;;;;73.23;27.67;;;5.00;99.90;;;;;;5051251;28;20028;-86
2021/12/11 13:09:34;;;;;;;76.77;28.93;;;5.00;99.90;;;;;;5050730;28;20405;-86
2021/12/11 13:12:09;;;;;;;74.47;27.63;;;5.00;99.90;;;;;;5051136;28;20029;-86
2021/12/11 13:14:36;;;;;;;71.27;26.93;;;5.00;99.90;;;;;;5050962;28;20028;-86
2021/12/11 13:17:10;;;;;;;63.07;25.47;;;5.00;99.90;;;;;;5051052;28;20025;-86